sensor_id;sensor_type;location;lat;lon;timestamp;temperature;humidity
9466;DHT22;4771;48.726;9.006;2023-04-03T00:02:00;4.50;99.90
9466;DHT22;4771;48.726;9.006;2023-04-03T00:04:27;4.40;99.90
9466;DHT22;4771;48.726;9.006;2023-04-03T00:06:56;4.50;99.90
9466;DHT22;4771;48.726;9.006;2023-04-03T00:09:23;4.40;99.90
9466;DHT22;4771;48.726;9.006;2023-04-03T00:11:50;4.40;99.90
9466;DHT22;4771;48.726;9.006;2023-04-03T00:14:17;4.30;99.90
9466;DHT22;4771;48.726;9.006;2023-04-03T00:16:44;5.40;99.90
9466;DHT22;4771;48.726;9.006;2023-04-03T00:19:11;4.30;99.90
9466;DHT22;4771;48.726;9.006;2023-04-03T00:21:38;4.30;99.90
9466;DHT22;4771;48.726;9.006;2023-04-03T00:24:07;4.30;99.90
9466;DHT22;4771;48.726;9.006;2023-04-03T00:26:34;4.20;99.90
9466;DHT22;4771;48.726;9.006;2023-04-03T00:29:00;4.30;99.90
9466;DHT22;4771;48.726;9.006;2023-04-03T00:31:27;4.30;99.90
9466;DHT22;4771;48.726;9.006;2023-04-03T00:33:54;4.30;99.90
9466;DHT22;4771;48.726;9.006;2023-04-03T00:36:21;4.20;99.90
9466;DHT22;4771;48.726;9.006;2023-04-03T00:38:48;4.30;99.90
9466;DHT22;4771;48.726;9.006;2023-04-03T00:41:16;4.20;99.90
9466;DHT22;4771;48.726;9.006;2023-04-03T00:43:43;4.30;99.90
9466;DHT22;4771;48.726;9.006;2023-04-03T00:46:10;4.30;99.90
9466;DHT22;4771;48.726;9.006;2023-04-03T00:48:39;4.30;99.90
9466;DHT22;4771;48.726;9.006;2023-04-03T00:51:11;4.30;99.90
9466;DHT22;4771;48.726;9.006;2023-04-03T00:53:42;4.30;99.90
9466;DHT22;4771;48.726;9.006;2023-04-03T00:56:12;4.50;99.90
9466;DHT22;4771;48.726;9.006;2023-04-03T00:58:44;4.30;99.90
9466;DHT22;4771;48.726;9.006;2023-04-03T01:01:17;4.90;99.90
9466;DHT22;4771;48.726;9.006;2023-04-03T01:03:45;4.30;99.90
9466;DHT22;4771;48.726;9.006;2023-04-03T01:06:13;4.40;99.90
9466;DHT22;4771;48.726;9.006;2023-04-03T01:08:41;4.30;99.90
9466;DHT22;4771;48.726;9.006;2023-04-03T01:11:09;4.30;99.90
9466;DHT22;4771;48.726;9.006;2023-04-03T01:13:35;4.20;99.90
9466;DHT22;4771;48.726;9.006;2023-04-03T01:16:04;4.30;99.90
9466;DHT22;4771;48.726;9.006;2023-04-03T01:18:32;4.40;99.90
9466;DHT22;4771;48.726;9.006;2023-04-03T01:24:08;4.50;99.90
9466;DHT22;4771;48.726;9.006;2023-04-03T01:26:36;4.40;99.90
9466;DHT22;4771;48.726;9.006;2023-04-03T01:29:03;4.40;99.90
9466;DHT22;4771;48.726;9.006;2023-04-03T01:31:42;4.40;99.90
9466;DHT22;4771;48.726;9.006;2023-04-03T01:34:10;4.30;99.90
9466;DHT22;4771;48.726;9.006;2023-04-03T01:36:37;4.30;99.90
9466;DHT22;4771;48.726;9.006;2023-04-03T01:39:04;4.30;99.90
9466;DHT22;4771;48.726;9.006;2023-04-03T01:41:30;4.30;99.90
9466;DHT22;4771;48.726;9.006;2023-04-03T01:43:57;4.20;99.90
9466;DHT22;4771;48.726;9.006;2023-04-03T01:46:24;4.30;99.90
9466;DHT22;4771;48.726;9.006;2023-04-03T01:48:53;4.30;99.90
9466;DHT22;4771;48.726;9.006;2023-04-03T01:51:20;4.40;99.90
9466;DHT22;4771;48.726;9.006;2023-04-03T01:53:47;4.30;99.90
9466;DHT22;4771;48.726;9.006;2023-04-03T01:56:13;4.30;99.90
9466;DHT22;4771;48.726;9.006;2023-04-03T01:58:41;4.30;99.90
9466;DHT22;4771;48.726;9.006;2023-04-03T02:01:08;4.40;99.90
9466;DHT22;4771;48.726;9.006;2023-04-03T02:03:35;4.40;99.90
9466;DHT22;4771;48.726;9.006;2023-04-03T02:06:03;4.50;99.90
9466;DHT22;4771;48.726;9.006;2023-04-03T02:08:30;4.50;99.90
9466;DHT22;4771;48.726;9.006;2023-04-03T02:10:57;4.50;99.90
9466;DHT22;4771;48.726;9.006;2023-04-03T02:13:24;4.50;99.90
9466;DHT22;4771;48.726;9.006;2023-04-03T02:15:51;4.50;99.90
9466;DHT22;4771;48.726;9.006;2023-04-03T02:18:18;4.60;99.90
9466;DHT22;4771;48.726;9.006;2023-04-03T02:20:46;4.50;99.90
9466;DHT22;4771;48.726;9.006;2023-04-03T02:23:14;4.60;99.90
9466;DHT22;4771;48.726;9.006;2023-04-03T02:25:41;4.50;99.90
9466;DHT22;4771;48.726;9.006;2023-04-03T02:28:08;4.60;99.90
9466;DHT22;4771;48.726;9.006;2023-04-03T02:30:35;4.50;99.90
9466;DHT22;4771;48.726;9.006;2023-04-03T02:33:02;4.60;99.90
9466;DHT22;4771;48.726;9.006;2023-04-03T02:35:29;4.60;99.90
9466;DHT22;4771;48.726;9.006;2023-04-03T02:37:56;4.60;99.90
9466;DHT22;4771;48.726;9.006;2023-04-03T02:40:24;4.50;99.90
9466;DHT22;4771;48.726;9.006;2023-04-03T02:42:51;4.70;99.90
9466;DHT22;4771;48.726;9.006;2023-04-03T02:45:18;4.60;99.90
9466;DHT22;4771;48.726;9.006;2023-04-03T02:47:45;4.80;99.90
9466;DHT22;4771;48.726;9.006;2023-04-03T02:50:12;4.80;99.90
9466;DHT22;4771;48.726;9.006;2023-04-03T02:52:38;4.80;99.90
9466;DHT22;4771;48.726;9.006;2023-04-03T02:55:06;4.70;99.90
9466;DHT22;4771;48.726;9.006;2023-04-03T02:57:35;4.60;99.90
9466;DHT22;4771;48.726;9.006;2023-04-03T03:00:02;4.50;99.90
9466;DHT22;4771;48.726;9.006;2023-04-03T03:02:29;4.60;99.90
9466;DHT22;4771;48.726;9.006;2023-04-03T03:04:56;4.50;99.90
9466;DHT22;4771;48.726;9.006;2023-04-03T03:07:23;4.50;99.90
9466;DHT22;4771;48.726;9.006;2023-04-03T03:09:50;4.60;99.90
9466;DHT22;4771;48.726;9.006;2023-04-03T03:12:16;4.50;99.90
9466;DHT22;4771;48.726;9.006;2023-04-03T03:14:49;4.60;99.90
9466;DHT22;4771;48.726;9.006;2023-04-03T03:17:16;4.40;99.90
9466;DHT22;4771;48.726;9.006;2023-04-03T03:19:43;4.40;99.90
9466;DHT22;4771;48.726;9.006;2023-04-03T03:22:11;4.20;99.90
9466;DHT22;4771;48.726;9.006;2023-04-03T03:24:38;4.20;99.90
9466;DHT22;4771;48.726;9.006;2023-04-03T03:27:04;4.30;99.90
9466;DHT22;4771;48.726;9.006;2023-04-03T03:29:31;4.20;99.90
9466;DHT22;4771;48.726;9.006;2023-04-03T03:31:59;4.30;99.90
9466;DHT22;4771;48.726;9.006;2023-04-03T03:34:26;4.20;99.90
9466;DHT22;4771;48.726;9.006;2023-04-03T03:36:53;4.00;99.90
9466;DHT22;4771;48.726;9.006;2023-04-03T03:39:20;4.10;99.90
9466;DHT22;4771;48.726;9.006;2023-04-03T03:41:47;4.00;99.90
9466;DHT22;4771;48.726;9.006;2023-04-03T03:44:15;3.80;99.90
9466;DHT22;4771;48.726;9.006;2023-04-03T03:46:41;3.70;99.90
9466;DHT22;4771;48.726;9.006;2023-04-03T03:49:10;3.80;99.90
9466;DHT22;4771;48.726;9.006;2023-04-03T03:51:37;3.80;99.90
9466;DHT22;4771;48.726;9.006;2023-04-03T03:54:04;3.90;99.90
9466;DHT22;4771;48.726;9.006;2023-04-03T03:56:31;3.90;99.90
9466;DHT22;4771;48.726;9.006;2023-04-03T03:58:58;3.80;99.90
9466;DHT22;4771;48.726;9.006;2023-04-03T04:01:25;3.90;99.90
9466;DHT22;4771;48.726;9.006;2023-04-03T04:03:52;3.90;99.90
9466;DHT22;4771;48.726;9.006;2023-04-03T04:06:21;4.00;99.90
9466;DHT22;4771;48.726;9.006;2023-04-03T04:08:48;4.00;99.90
9466;DHT22;4771;48.726;9.006;2023-04-03T04:11:15;3.70;99.90
9466;DHT22;4771;48.726;9.006;2023-04-03T04:13:42;3.80;99.90
9466;DHT22;4771;48.726;9.006;2023-04-03T04:16:09;3.90;99.90
9466;DHT22;4771;48.726;9.006;2023-04-03T04:18:36;4.00;99.90
9466;DHT22;4771;48.726;9.006;2023-04-03T04:21:03;4.10;99.90
9466;DHT22;4771;48.726;9.006;2023-04-03T04:23:31;4.10;99.90
9466;DHT22;4771;48.726;9.006;2023-04-03T04:25:58;4.20;99.90
9466;DHT22;4771;48.726;9.006;2023-04-03T04:28:25;4.20;99.90
9466;DHT22;4771;48.726;9.006;2023-04-03T04:30:51;4.20;99.90
9466;DHT22;4771;48.726;9.006;2023-04-03T04:33:18;4.30;99.90
9466;DHT22;4771;48.726;9.006;2023-04-03T04:35:47;4.20;99.90
9466;DHT22;4771;48.726;9.006;2023-04-03T04:38:14;4.30;99.90
9466;DHT22;4771;48.726;9.006;2023-04-03T04:40:43;4.10;99.90
9466;DHT22;4771;48.726;9.006;2023-04-03T04:43:10;4.10;99.90
9466;DHT22;4771;48.726;9.006;2023-04-03T04:45:40;4.10;99.90
9466;DHT22;4771;48.726;9.006;2023-04-03T04:48:07;4.00;99.90
9466;DHT22;4771;48.726;9.006;2023-04-03T04:50:34;3.80;99.90
9466;DHT22;4771;48.726;9.006;2023-04-03T04:53:00;3.90;99.90
9466;DHT22;4771;48.726;9.006;2023-04-03T04:55:27;4.00;99.90
9466;DHT22;4771;48.726;9.006;2023-04-03T04:57:55;4.10;99.90
9466;DHT22;4771;48.726;9.006;2023-04-03T05:00:22;4.20;99.90
9466;DHT22;4771;48.726;9.006;2023-04-03T05:02:49;4.10;99.90
9466;DHT22;4771;48.726;9.006;2023-04-03T05:05:16;4.00;99.90
9466;DHT22;4771;48.726;9.006;2023-04-03T05:07:43;4.10;99.90
9466;DHT22;4771;48.726;9.006;2023-04-03T05:10:10;4.00;99.90
9466;DHT22;4771;48.726;9.006;2023-04-03T05:12:37;4.00;99.90
9466;DHT22;4771;48.726;9.006;2023-04-03T05:15:07;4.10;99.90
9466;DHT22;4771;48.726;9.006;2023-04-03T05:17:34;4.30;99.90
9466;DHT22;4771;48.726;9.006;2023-04-03T05:20:01;4.30;99.90
9466;DHT22;4771;48.726;9.006;2023-04-03T05:22:28;4.20;99.90
9466;DHT22;4771;48.726;9.006;2023-04-03T05:24:55;4.20;99.90
9466;DHT22;4771;48.726;9.006;2023-04-03T05:27:22;4.20;99.90
9466;DHT22;4771;48.726;9.006;2023-04-03T05:29:50;4.30;99.90
9466;DHT22;4771;48.726;9.006;2023-04-03T05:32:18;4.10;99.90
9466;DHT22;4771;48.726;9.006;2023-04-03T05:34:45;4.30;99.90
9466;DHT22;4771;48.726;9.006;2023-04-03T05:37:12;4.30;99.90
9466;DHT22;4771;48.726;9.006;2023-04-03T05:39:40;4.20;99.90
9466;DHT22;4771;48.726;9.006;2023-04-03T05:42:07;4.10;99.90
9466;DHT22;4771;48.726;9.006;2023-04-03T05:44:34;3.90;99.90
9466;DHT22;4771;48.726;9.006;2023-04-03T05:47:01;4.10;99.90
9466;DHT22;4771;48.726;9.006;2023-04-03T05:49:29;4.00;99.90
9466;DHT22;4771;48.726;9.006;2023-04-03T05:51:56;4.10;99.90
9466;DHT22;4771;48.726;9.006;2023-04-03T05:54:24;4.10;99.90
9466;DHT22;4771;48.726;9.006;2023-04-03T05:56:52;4.20;99.90
9466;DHT22;4771;48.726;9.006;2023-04-03T05:59:20;4.00;99.90
9466;DHT22;4771;48.726;9.006;2023-04-03T06:01:47;4.20;99.90
9466;DHT22;4771;48.726;9.006;2023-04-03T06:04:14;4.30;99.90
9466;DHT22;4771;48.726;9.006;2023-04-03T06:06:47;4.40;99.90
9466;DHT22;4771;48.726;9.006;2023-04-03T06:09:15;4.50;99.90
9466;DHT22;4771;48.726;9.006;2023-04-03T06:11:42;4.50;99.90
9466;DHT22;4771;48.726;9.006;2023-04-03T06:14:10;4.40;99.90
9466;DHT22;4771;48.726;9.006;2023-04-03T06:16:37;4.40;99.90
9466;DHT22;4771;48.726;9.006;2023-04-03T06:19:04;4.10;99.90
9466;DHT22;4771;48.726;9.006;2023-04-03T06:21:32;4.20;99.90
9466;DHT22;4771;48.726;9.006;2023-04-03T06:24:01;4.10;99.90
9466;DHT22;4771;48.726;9.006;2023-04-03T06:26:28;4.20;99.90
9466;DHT22;4771;48.726;9.006;2023-04-03T06:28:55;4.00;99.90
9466;DHT22;4771;48.726;9.006;2023-04-03T06:31:22;4.00;99.90
9466;DHT22;4771;48.726;9.006;2023-04-03T06:33:48;4.00;99.90
9466;DHT22;4771;48.726;9.006;2023-04-03T06:36:18;4.00;99.90
9466;DHT22;4771;48.726;9.006;2023-04-03T06:38:46;4.10;99.90
9466;DHT22;4771;48.726;9.006;2023-04-03T06:41:15;4.20;99.90
9466;DHT22;4771;48.726;9.006;2023-04-03T06:43:42;4.20;99.90
9466;DHT22;4771;48.726;9.006;2023-04-03T06:46:13;4.40;99.90
9466;DHT22;4771;48.726;9.006;2023-04-03T06:48:41;4.30;99.90
9466;DHT22;4771;48.726;9.006;2023-04-03T06:51:16;4.40;99.90
9466;DHT22;4771;48.726;9.006;2023-04-03T06:53:44;4.40;99.90
9466;DHT22;4771;48.726;9.006;2023-04-03T06:56:11;4.40;99.90
9466;DHT22;4771;48.726;9.006;2023-04-03T06:58:39;4.30;99.90
9466;DHT22;4771;48.726;9.006;2023-04-03T07:01:07;4.30;99.90
9466;DHT22;4771;48.726;9.006;2023-04-03T07:03:35;4.20;99.90
9466;DHT22;4771;48.726;9.006;2023-04-03T07:06:02;4.20;99.90
9466;DHT22;4771;48.726;9.006;2023-04-03T07:08:29;4.20;99.90
9466;DHT22;4771;48.726;9.006;2023-04-03T07:10:56;4.30;99.90
9466;DHT22;4771;48.726;9.006;2023-04-03T07:13:23;4.30;99.90
9466;DHT22;4771;48.726;9.006;2023-04-03T07:15:51;4.40;99.90
9466;DHT22;4771;48.726;9.006;2023-04-03T07:18:18;4.60;99.90
9466;DHT22;4771;48.726;9.006;2023-04-03T07:20:46;4.40;99.90
9466;DHT22;4771;48.726;9.006;2023-04-03T07:23:13;4.60;99.90
9466;DHT22;4771;48.726;9.006;2023-04-03T07:25:42;4.90;99.90
9466;DHT22;4771;48.726;9.006;2023-04-03T07:28:10;4.80;99.90
9466;DHT22;4771;48.726;9.006;2023-04-03T07:30:42;4.80;99.90
9466;DHT22;4771;48.726;9.006;2023-04-03T07:33:11;4.90;99.90
9466;DHT22;4771;48.726;9.006;2023-04-03T07:35:38;4.90;99.90
9466;DHT22;4771;48.726;9.006;2023-04-03T07:38:05;4.90;99.90
9466;DHT22;4771;48.726;9.006;2023-04-03T07:40:32;4.90;99.90
9466;DHT22;4771;48.726;9.006;2023-04-03T07:42:59;4.90;99.90
9466;DHT22;4771;48.726;9.006;2023-04-03T07:45:26;4.90;99.90
9466;DHT22;4771;48.726;9.006;2023-04-03T07:47:56;4.90;99.90
9466;DHT22;4771;48.726;9.006;2023-04-03T07:50:24;4.80;99.90
9466;DHT22;4771;48.726;9.006;2023-04-03T07:52:51;4.90;99.90
9466;DHT22;4771;48.726;9.006;2023-04-03T07:55:20;5.00;99.90
9466;DHT22;4771;48.726;9.006;2023-04-03T07:57:46;5.00;99.90
9466;DHT22;4771;48.726;9.006;2023-04-03T08:00:14;4.90;99.90
9466;DHT22;4771;48.726;9.006;2023-04-03T08:02:43;4.90;99.90
9466;DHT22;4771;48.726;9.006;2023-04-03T08:05:10;5.00;99.90
9466;DHT22;4771;48.726;9.006;2023-04-03T08:07:38;4.90;99.90
9466;DHT22;4771;48.726;9.006;2023-04-03T08:10:06;4.90;99.90
9466;DHT22;4771;48.726;9.006;2023-04-03T08:12:33;4.90;99.90
9466;DHT22;4771;48.726;9.006;2023-04-03T08:15:00;5.00;99.90
9466;DHT22;4771;48.726;9.006;2023-04-03T08:17:27;5.10;99.90
9466;DHT22;4771;48.726;9.006;2023-04-03T08:19:54;5.10;99.90
9466;DHT22;4771;48.726;9.006;2023-04-03T08:22:21;5.20;99.90
9466;DHT22;4771;48.726;9.006;2023-04-03T08:24:49;5.20;99.90
9466;DHT22;4771;48.726;9.006;2023-04-03T08:27:16;5.40;99.90
9466;DHT22;4771;48.726;9.006;2023-04-03T08:29:43;5.40;99.90
9466;DHT22;4771;48.726;9.006;2023-04-03T08:32:10;5.40;99.90
9466;DHT22;4771;48.726;9.006;2023-04-03T08:34:37;5.40;99.90
9466;DHT22;4771;48.726;9.006;2023-04-03T08:37:05;5.50;99.90
9466;DHT22;4771;48.726;9.006;2023-04-03T08:39:32;5.50;99.90
9466;DHT22;4771;48.726;9.006;2023-04-03T08:42:05;5.50;99.90
9466;DHT22;4771;48.726;9.006;2023-04-03T08:44:39;5.60;99.90
9466;DHT22;4771;48.726;9.006;2023-04-03T08:47:15;5.70;99.90
9466;DHT22;4771;48.726;9.006;2023-04-03T08:49:46;5.80;99.90
9466;DHT22;4771;48.726;9.006;2023-04-03T08:52:19;5.80;99.90
9466;DHT22;4771;48.726;9.006;2023-04-03T08:54:53;5.80;99.90
9466;DHT22;4771;48.726;9.006;2023-04-03T08:57:29;5.80;99.90
9466;DHT22;4771;48.726;9.006;2023-04-03T08:59:58;5.80;99.90
9466;DHT22;4771;48.726;9.006;2023-04-03T09:02:33;5.90;99.90
9466;DHT22;4771;48.726;9.006;2023-04-03T09:05:02;6.00;99.90
9466;DHT22;4771;48.726;9.006;2023-04-03T09:07:38;6.00;99.90
9466;DHT22;4771;48.726;9.006;2023-04-03T09:10:08;6.10;99.90
9466;DHT22;4771;48.726;9.006;2023-04-03T09:12:40;5.90;99.90
9466;DHT22;4771;48.726;9.006;2023-04-03T09:15:16;6.00;99.90
9466;DHT22;4771;48.726;9.006;2023-04-03T09:17:53;6.10;99.90
9466;DHT22;4771;48.726;9.006;2023-04-03T09:20:27;6.20;99.90
9466;DHT22;4771;48.726;9.006;2023-04-03T09:22:57;6.10;99.90
9466;DHT22;4771;48.726;9.006;2023-04-03T09:25:26;6.30;99.90
9466;DHT22;4771;48.726;9.006;2023-04-03T09:27:55;6.30;99.90
9466;DHT22;4771;48.726;9.006;2023-04-03T09:30:24;6.40;99.90
9466;DHT22;4771;48.726;9.006;2023-04-03T09:32:53;6.50;99.90
9466;DHT22;4771;48.726;9.006;2023-04-03T09:35:23;6.40;99.90
9466;DHT22;4771;48.726;9.006;2023-04-03T09:37:52;7.40;99.90
9466;DHT22;4771;48.726;9.006;2023-04-03T09:40:32;6.10;99.90
9466;DHT22;4771;48.726;9.006;2023-04-03T09:43:08;6.00;99.90
9466;DHT22;4771;48.726;9.006;2023-04-03T09:45:46;6.10;99.90
9466;DHT22;4771;48.726;9.006;2023-04-03T09:48:17;6.10;99.90
9466;DHT22;4771;48.726;9.006;2023-04-03T09:51:01;6.00;99.90
9466;DHT22;4771;48.726;9.006;2023-04-03T09:53:32;6.00;99.90
9466;DHT22;4771;48.726;9.006;2023-04-03T09:56:00;6.00;99.90
9466;DHT22;4771;48.726;9.006;2023-04-03T09:58:31;6.20;99.90
9466;DHT22;4771;48.726;9.006;2023-04-03T10:01:01;6.30;99.90
9466;DHT22;4771;48.726;9.006;2023-04-03T10:03:31;6.30;99.90
9466;DHT22;4771;48.726;9.006;2023-04-03T10:05:59;6.20;99.90
9466;DHT22;4771;48.726;9.006;2023-04-03T10:08:30;6.20;99.90
9466;DHT22;4771;48.726;9.006;2023-04-03T10:11:10;6.20;99.90
9466;DHT22;4771;48.726;9.006;2023-04-03T10:13:51;6.30;99.90
9466;DHT22;4771;48.726;9.006;2023-04-03T10:16:19;6.50;99.90
9466;DHT22;4771;48.726;9.006;2023-04-03T10:18:59;6.50;99.90
9466;DHT22;4771;48.726;9.006;2023-04-03T10:21:34;6.50;99.90
9466;DHT22;4771;48.726;9.006;2023-04-03T10:24:09;6.50;99.90
9466;DHT22;4771;48.726;9.006;2023-04-03T10:26:45;6.40;99.90
9466;DHT22;4771;48.726;9.006;2023-04-03T10:29:25;6.30;99.90
9466;DHT22;4771;48.726;9.006;2023-04-03T10:32:01;6.30;99.90
9466;DHT22;4771;48.726;9.006;2023-04-03T10:34:32;6.40;99.90
9466;DHT22;4771;48.726;9.006;2023-04-03T10:37:05;6.30;99.90
9466;DHT22;4771;48.726;9.006;2023-04-03T10:39:43;6.50;99.90
9466;DHT22;4771;48.726;9.006;2023-04-03T10:42:20;6.30;99.90
9466;DHT22;4771;48.726;9.006;2023-04-03T10:45:03;6.40;99.90
9466;DHT22;4771;48.726;9.006;2023-04-03T10:47:40;6.20;99.90
9466;DHT22;4771;48.726;9.006;2023-04-03T10:50:29;6.20;99.90
9466;DHT22;4771;48.726;9.006;2023-04-03T10:53:02;6.10;99.90
9466;DHT22;4771;48.726;9.006;2023-04-03T10:55:36;6.10;99.90
9466;DHT22;4771;48.726;9.006;2023-04-03T10:58:05;6.20;99.90
9466;DHT22;4771;48.726;9.006;2023-04-03T11:00:38;6.20;99.90
9466;DHT22;4771;48.726;9.006;2023-04-03T11:03:11;6.10;99.90
9466;DHT22;4771;48.726;9.006;2023-04-03T11:05:42;6.10;99.90
9466;DHT22;4771;48.726;9.006;2023-04-03T11:08:16;6.10;99.90
9466;DHT22;4771;48.726;9.006;2023-04-03T11:10:47;6.00;99.90
9466;DHT22;4771;48.726;9.006;2023-04-03T11:13:18;6.00;99.90
9466;DHT22;4771;48.726;9.006;2023-04-03T11:15:48;5.90;99.90
9466;DHT22;4771;48.726;9.006;2023-04-03T11:18:18;6.00;99.90
9466;DHT22;4771;48.726;9.006;2023-04-03T11:20:53;6.00;99.90
9466;DHT22;4771;48.726;9.006;2023-04-03T11:23:25;5.90;99.90
9466;DHT22;4771;48.726;9.006;2023-04-03T11:25:55;5.90;99.90
9466;DHT22;4771;48.726;9.006;2023-04-03T11:28:23;5.90;99.90
9466;DHT22;4771;48.726;9.006;2023-04-03T11:30:58;5.90;99.90
9466;DHT22;4771;48.726;9.006;2023-04-03T11:33:37;5.90;99.90
9466;DHT22;4771;48.726;9.006;2023-04-03T11:36:09;5.90;99.90
9466;DHT22;4771;48.726;9.006;2023-04-03T11:38:38;6.00;99.90
9466;DHT22;4771;48.726;9.006;2023-04-03T11:41:08;6.00;99.90
9466;DHT22;4771;48.726;9.006;2023-04-03T11:43:41;6.10;99.90
9466;DHT22;4771;48.726;9.006;2023-04-03T11:46:09;6.10;99.90
9466;DHT22;4771;48.726;9.006;2023-04-03T11:48:50;6.20;99.90
9466;DHT22;4771;48.726;9.006;2023-04-03T11:51:41;6.20;99.80
9466;DHT22;4771;48.726;9.006;2023-04-03T11:54:49;6.00;99.20
9466;DHT22;4771;48.726;9.006;2023-04-03T11:58:03;6.10;99.90
9466;DHT22;4771;48.726;9.006;2023-04-03T12:01:07;6.10;99.90
9466;DHT22;4771;48.726;9.006;2023-04-03T12:06:53;6.20;98.00
9466;DHT22;4771;48.726;9.006;2023-04-03T12:09:56;6.10;97.20
9466;DHT22;4771;48.726;9.006;2023-04-03T12:12:56;6.20;98.00
9466;DHT22;4771;48.726;9.006;2023-04-03T12:21:19;6.30;98.90
9466;DHT22;4771;48.726;9.006;2023-04-03T12:24:03;6.70;97.20
9466;DHT22;4771;48.726;9.006;2023-04-03T12:26:36;6.50;99.40
9466;DHT22;4771;48.726;9.006;2023-04-03T12:29:15;6.50;96.20
9466;DHT22;4771;48.726;9.006;2023-04-03T12:32:00;6.50;96.30
9466;DHT22;4771;48.726;9.006;2023-04-03T12:34:46;6.50;96.20
9466;DHT22;4771;48.726;9.006;2023-04-03T12:37:30;6.40;95.20
9466;DHT22;4771;48.726;9.006;2023-04-03T12:40:24;6.40;95.90
9466;DHT22;4771;48.726;9.006;2023-04-03T12:43:09;6.30;95.90
9466;DHT22;4771;48.726;9.006;2023-04-03T12:45:43;6.40;97.00
9466;DHT22;4771;48.726;9.006;2023-04-03T12:48:15;6.40;95.40
9466;DHT22;4771;48.726;9.006;2023-04-03T12:50:45;6.40;94.60
9466;DHT22;4771;48.726;9.006;2023-04-03T12:53:16;6.30;94.30
9466;DHT22;4771;48.726;9.006;2023-04-03T12:55:46;6.40;94.20
9466;DHT22;4771;48.726;9.006;2023-04-03T12:58:17;6.30;93.90
9466;DHT22;4771;48.726;9.006;2023-04-03T13:00:59;6.20;95.20
9466;DHT22;4771;48.726;9.006;2023-04-03T13:03:27;6.10;93.60
9466;DHT22;4771;48.726;9.006;2023-04-03T13:05:56;6.10;96.10
9466;DHT22;4771;48.726;9.006;2023-04-03T13:08:24;6.20;95.90
9466;DHT22;4771;48.726;9.006;2023-04-03T13:10:56;6.20;95.70
9466;DHT22;4771;48.726;9.006;2023-04-03T13:13:24;6.20;94.70
9466;DHT22;4771;48.726;9.006;2023-04-03T13:15:53;6.20;94.50
9466;DHT22;4771;48.726;9.006;2023-04-03T13:18:26;6.00;92.30
9466;DHT22;4771;48.726;9.006;2023-04-03T13:20:56;6.00;94.40
9466;DHT22;4771;48.726;9.006;2023-04-03T13:23:24;6.10;93.30
9466;DHT22;4771;48.726;9.006;2023-04-03T13:25:53;6.20;94.80
9466;DHT22;4771;48.726;9.006;2023-04-03T13:28:22;6.20;94.60
9466;DHT22;4771;48.726;9.006;2023-04-03T13:30:56;6.70;96.00
9466;DHT22;4771;48.726;9.006;2023-04-03T13:33:26;6.40;93.30
9466;DHT22;4771;48.726;9.006;2023-04-03T13:35:56;6.40;93.10
9466;DHT22;4771;48.726;9.006;2023-04-03T13:38:26;5.60;90.20
9466;DHT22;4771;48.726;9.006;2023-04-03T13:41:00;6.40;91.70
9466;DHT22;4771;48.726;9.006;2023-04-03T13:43:30;6.60;84.20
9466;DHT22;4771;48.726;9.006;2023-04-03T13:46:05;6.70;87.80
9466;DHT22;4771;48.726;9.006;2023-04-03T13:48:38;6.70;83.30
9466;DHT22;4771;48.726;9.006;2023-04-03T13:51:16;6.80;87.90
9466;DHT22;4771;48.726;9.006;2023-04-03T13:53:46;7.00;86.90
9466;DHT22;4771;48.726;9.006;2023-04-03T13:56:21;7.30;90.20
9466;DHT22;4771;48.726;9.006;2023-04-03T13:59:00;7.50;82.30
9466;DHT22;4771;48.726;9.006;2023-04-03T14:01:36;7.50;85.50
9466;DHT22;4771;48.726;9.006;2023-04-03T14:04:13;7.70;83.70
9466;DHT22;4771;48.726;9.006;2023-04-03T14:06:41;7.70;81.00
9466;DHT22;4771;48.726;9.006;2023-04-03T14:09:08;7.60;77.00
9466;DHT22;4771;48.726;9.006;2023-04-03T14:11:36;7.50;75.20
9466;DHT22;4771;48.726;9.006;2023-04-03T14:14:10;7.50;76.20
9466;DHT22;4771;48.726;9.006;2023-04-03T14:16:40;7.50;77.60
9466;DHT22;4771;48.726;9.006;2023-04-03T14:19:14;7.60;71.70
9466;DHT22;4771;48.726;9.006;2023-04-03T14:21:43;7.50;68.10
9466;DHT22;4771;48.726;9.006;2023-04-03T14:24:10;7.40;70.50
9466;DHT22;4771;48.726;9.006;2023-04-03T14:26:39;7.40;66.90
9466;DHT22;4771;48.726;9.006;2023-04-03T14:29:06;7.50;64.60
9466;DHT22;4771;48.726;9.006;2023-04-03T14:31:33;7.50;72.40
9466;DHT22;4771;48.726;9.006;2023-04-03T14:34:00;7.30;70.00
9466;DHT22;4771;48.726;9.006;2023-04-03T14:36:28;7.50;67.70
9466;DHT22;4771;48.726;9.006;2023-04-03T14:38:56;7.40;63.70
9466;DHT22;4771;48.726;9.006;2023-04-03T14:41:24;7.20;63.90
9466;DHT22;4771;48.726;9.006;2023-04-03T14:43:54;7.20;69.20
9466;DHT22;4771;48.726;9.006;2023-04-03T14:46:24;7.30;71.30
9466;DHT22;4771;48.726;9.006;2023-04-03T14:48:52;7.30;66.90
9466;DHT22;4771;48.726;9.006;2023-04-03T14:51:19;7.30;71.20
9466;DHT22;4771;48.726;9.006;2023-04-03T14:53:45;7.40;69.60
9466;DHT22;4771;48.726;9.006;2023-04-03T14:56:14;7.40;72.30
9466;DHT22;4771;48.726;9.006;2023-04-03T14:58:42;7.40;67.20
9466;DHT22;4771;48.726;9.006;2023-04-03T15:01:11;7.30;67.20
9466;DHT22;4771;48.726;9.006;2023-04-03T15:03:39;7.30;74.10
9466;DHT22;4771;48.726;9.006;2023-04-03T15:06:07;7.20;70.80
9466;DHT22;4771;48.726;9.006;2023-04-03T15:08:35;7.30;71.60
9466;DHT22;4771;48.726;9.006;2023-04-03T15:11:02;7.40;64.00
9466;DHT22;4771;48.726;9.006;2023-04-03T15:13:29;7.40;61.70
9466;DHT22;4771;48.726;9.006;2023-04-03T15:15:56;7.40;63.20
9466;DHT22;4771;48.726;9.006;2023-04-03T15:18:26;8.00;55.60
9466;DHT22;4771;48.726;9.006;2023-04-03T15:20:54;7.60;58.60
9466;DHT22;4771;48.726;9.006;2023-04-03T15:23:21;7.80;59.00
9466;DHT22;4771;48.726;9.006;2023-04-03T15:25:52;8.00;55.60
9466;DHT22;4771;48.726;9.006;2023-04-03T15:28:23;8.00;55.20
9466;DHT22;4771;48.726;9.006;2023-04-03T15:30:51;7.60;54.10
9466;DHT22;4771;48.726;9.006;2023-04-03T15:33:18;7.70;56.20
9466;DHT22;4771;48.726;9.006;2023-04-03T15:35:47;7.70;55.10
9466;DHT22;4771;48.726;9.006;2023-04-03T15:38:13;7.70;53.20
9466;DHT22;4771;48.726;9.006;2023-04-03T15:40:41;7.70;56.00
9466;DHT22;4771;48.726;9.006;2023-04-03T15:43:08;7.50;56.60
9466;DHT22;4771;48.726;9.006;2023-04-03T15:45:36;7.30;54.00
9466;DHT22;4771;48.726;9.006;2023-04-03T15:48:03;7.30;57.10
9466;DHT22;4771;48.726;9.006;2023-04-03T15:50:31;7.30;56.50
9466;DHT22;4771;48.726;9.006;2023-04-03T15:53:00;7.40;57.60
9466;DHT22;4771;48.726;9.006;2023-04-03T15:55:29;7.20;55.70
9466;DHT22;4771;48.726;9.006;2023-04-03T15:57:56;7.40;58.40
9466;DHT22;4771;48.726;9.006;2023-04-03T16:00:24;7.40;56.80
9466;DHT22;4771;48.726;9.006;2023-04-03T16:02:53;7.60;58.60
9466;DHT22;4771;48.726;9.006;2023-04-03T16:05:20;7.60;57.30
9466;DHT22;4771;48.726;9.006;2023-04-03T16:07:48;7.60;53.70
9466;DHT22;4771;48.726;9.006;2023-04-03T16:10:17;7.70;54.20
9466;DHT22;4771;48.726;9.006;2023-04-03T16:12:44;7.50;51.00
9466;DHT22;4771;48.726;9.006;2023-04-03T16:15:11;7.40;51.00
9466;DHT22;4771;48.726;9.006;2023-04-03T16:17:39;7.40;50.50
9466;DHT22;4771;48.726;9.006;2023-04-03T16:20:09;7.20;50.60
9466;DHT22;4771;48.726;9.006;2023-04-03T16:22:37;7.20;51.70
9466;DHT22;4771;48.726;9.006;2023-04-03T16:25:05;7.10;51.40
9466;DHT22;4771;48.726;9.006;2023-04-03T16:27:34;7.20;51.60
9466;DHT22;4771;48.726;9.006;2023-04-03T16:30:01;7.10;51.60
9466;DHT22;4771;48.726;9.006;2023-04-03T16:32:31;7.00;51.90
9466;DHT22;4771;48.726;9.006;2023-04-03T16:34:58;7.00;52.20
9466;DHT22;4771;48.726;9.006;2023-04-03T16:37:25;6.80;50.50
9466;DHT22;4771;48.726;9.006;2023-04-03T16:39:53;6.70;51.80
9466;DHT22;4771;48.726;9.006;2023-04-03T16:42:20;6.70;50.20
9466;DHT22;4771;48.726;9.006;2023-04-03T16:44:48;6.50;49.60
9466;DHT22;4771;48.726;9.006;2023-04-03T16:47:15;6.70;50.70